Time;durP1;ratioP1;P1;durP2;ratioP2;P2;SDS_P1;SDS_P2;PMS_P1;PMS_P2;Temp;Humidity;BMP_temperature;BMP_pressure;BME280_temperature;BME280_humidity;BME280_pressure;Samples;Min_cycle;Max_cycle;Signal;HPM_P1;HPM_P2
2021/06/24 00:01:49;;;;;;;11.43;4.28;;;13.60;99.90;;;;;;5032072;28;20656;-79
2021/06/24 00:04:14;;;;;;;11.82;4.00;;;13.50;99.90;;;;;;5032385;28;20190;-78
2021/06/24 00:06:40;;;;;;;8.18;4.20;;;13.50;99.90;;;;;;5032068;28;20666;-78
2021/06/24 00:09:07;;;;;;;9.02;3.70;;;13.40;99.90;;;;;;5030961;28;20224;-78
2021/06/24 00:11:32;;;;;;;25.58;4.00;;;13.30;99.90;;;;;;5028592;28;20580;-78
2021/06/24 00:13:58;;;;;;;9.73;3.53;;;13.20;99.90;;;;;;5030798;28;20202;-79
2021/06/24 00:16:25;;;;;;;12.85;3.72;;;13.20;99.90;;;;;;5049431;28;20232;-78
2021/06/24 00:18:51;;;;;;;11.27;4.20;;;13.10;99.90;;;;;;5049749;28;20315;-79
2021/06/24 00:21:17;;;;;;;8.35;4.50;;;13.10;99.90;;;;;;5050719;28;20280;-79
2021/06/24 00:23:43;;;;;;;18.15;4.05;;;13.00;99.90;;;;;;5048968;28;20221;-79
2021/06/24 00:26:09;;;;;;;11.68;4.05;;;12.90;99.90;;;;;;5031389;28;21091;-78
2021/06/24 00:28:35;;;;;;;9.73;3.92;;;12.90;99.90;;;;;;5032098;28;20204;-78
2021/06/24 00:31:02;;;;;;;6.93;3.60;;;12.80;99.90;;;;;;5031913;28;20687;-78
2021/06/24 00:33:28;;;;;;;7.70;3.45;;;12.70;99.90;;;;;;5048048;28;20193;-78
2021/06/24 00:35:54;;;;;;;12.02;3.75;;;12.70;99.90;;;;;;5024685;28;20617;-78
2021/06/24 00:38:19;;;;;;;6.63;3.45;;;12.60;99.90;;;;;;5049350;28;20213;-82
2021/06/24 00:40:45;;;;;;;13.15;4.05;;;12.60;99.90;;;;;;5029465;28;20572;-78
2021/06/24 00:43:14;;;;;;;8.07;3.25;;;12.60;99.90;;;;;;5048697;28;20189;-79
2021/06/24 00:45:40;;;;;;;5.25;3.50;;;12.60;99.90;;;;;;5048247;28;20251;-79
2021/06/24 00:48:08;;;;;;;6.53;3.80;;;12.60;99.90;;;;;;5032217;28;20207;-79
2021/06/24 00:50:35;;;;;;;23.65;4.03;;;12.50;99.90;;;;;;5046414;28;20208;-79
2021/06/24 00:53:01;;;;;;;6.95;4.13;;;12.40;99.90;;;;;;5046958;28;20198;-78
2021/06/24 00:55:40;;;;;;;13.00;4.47;;;12.40;99.90;;;;;;5035134;28;20732;-79
2021/06/24 00:58:12;;;;;;;10.50;4.20;;;12.30;99.90;;;;;;5030567;28;20624;-78
2021/06/24 01:00:40;;;;;;;10.95;3.55;;;12.20;99.90;;;;;;5048075;28;20225;-78
2021/06/24 01:03:06;;;;;;;9.60;3.67;;;12.20;99.90;;;;;;5046747;28;20273;-78
2021/06/24 01:05:34;;;;;;;7.20;3.30;;;12.20;99.90;;;;;;5045634;28;20220;-80
2021/06/24 01:07:59;;;;;;;14.25;4.57;;;12.20;99.90;;;;;;5029750;28;20197;-78
2021/06/24 01:10:25;;;;;;;15.60;4.07;;;12.20;99.90;;;;;;5047645;28;20200;-78
2021/06/24 01:12:51;;;;;;;10.75;3.72;;;12.20;99.90;;;;;;5046964;28;20252;-79
2021/06/24 01:15:17;;;;;;;8.68;3.67;;;12.10;99.90;;;;;;5047604;28;20212;-78
2021/06/24 01:17:43;;;;;;;14.60;3.80;;;12.10;99.90;;;;;;5030640;28;20210;-78
2021/06/24 01:20:09;;;;;;;13.38;4.63;;;12.10;99.90;;;;;;5040507;28;20189;-79
2021/06/24 01:22:34;;;;;;;13.98;4.45;;;12.10;99.90;;;;;;5031617;28;20220;-78
2021/06/24 01:25:00;;;;;;;8.05;3.83;;;12.10;99.90;;;;;;5030250;28;20220;-78
2021/06/24 01:27:26;;;;;;;40.78;5.28;;;12.10;99.90;;;;;;5052002;28;20193;-78
2021/06/24 01:29:52;;;;;;;8.82;3.70;;;12.00;99.90;;;;;;5028614;28;20725;-79
2021/06/24 01:32:18;;;;;;;12.85;4.00;;;12.00;99.90;;;;;;5045129;28;20206;-79
2021/06/24 01:34:43;;;;;;;6.25;3.70;;;12.00;99.90;;;;;;5028790;28;20634;-80
2021/06/24 01:37:09;;;;;;;7.72;3.55;;;12.00;99.90;;;;;;5048963;28;20212;-78
2021/06/24 01:39:35;;;;;;;6.55;3.55;;;12.00;99.90;;;;;;5027163;28;20297;-78
2021/06/24 01:42:01;;;;;;;7.10;3.40;;;12.00;99.90;;;;;;5028584;28;20229;-78
2021/06/24 01:44:32;;;;;;;5.90;2.97;;;12.00;99.90;;;;;;5028357;28;20679;-78
2021/06/24 01:46:58;;;;;;;6.07;3.10;;;11.90;99.90;;;;;;5030403;28;20196;-78
2021/06/24 01:49:23;;;;;;;4.32;3.28;;;11.90;99.90;;;;;;5024939;28;20205;-78
2021/06/24 01:51:49;;;;;;;4.38;3.17;;;11.90;99.90;;;;;;5046178;28;20220;-77
2021/06/24 01:54:22;;;;;;;10.50;3.15;;;11.90;99.90;;;;;;5031476;28;20708;-79
2021/06/24 01:56:53;;;;;;;4.78;2.88;;;12.00;99.90;;;;;;5034228;28;20563;-78
2021/06/24 01:59:19;;;;;;;44.40;5.38;;;12.00;99.90;;;;;;5033624;28;20209;-79
2021/06/24 02:01:45;;;;;;;41.95;4.88;;;12.10;99.90;;;;;;5048419;28;20303;-77
2021/06/24 02:04:11;;;;;;;10.52;3.15;;;12.10;99.90;;;;;;5048630;28;20844;-80
2021/06/24 02:06:37;;;;;;;30.35;4.30;;;12.20;99.90;;;;;;5025046;28;20193;-80
2021/06/24 02:09:03;;;;;;;9.00;4.35;;;12.20;99.90;;;;;;5034466;28;20326;-79
2021/06/24 02:11:29;;;;;;;13.00;4.35;;;12.30;99.90;;;;;;5048059;28;20209;-78
2021/06/24 02:13:55;;;;;;;9.15;4.63;;;12.40;99.90;;;;;;5051309;28;20695;-79
2021/06/24 02:16:20;;;;;;;7.63;4.47;;;12.40;99.90;;;;;;5033150;28;20212;-78
2021/06/24 02:18:46;;;;;;;8.73;4.65;;;12.50;99.90;;;;;;5050229;28;20205;-78
2021/06/24 02:21:12;;;;;;;9.82;4.50;;;12.60;99.90;;;;;;5047952;28;20198;-79
2021/06/24 02:23:38;;;;;;;7.53;4.10;;;12.60;99.90;;;;;;5035171;28;20192;-80
2021/06/24 02:26:03;;;;;;;5.68;3.53;;;12.70;99.90;;;;;;5032176;28;20226;-80
2021/06/24 02:28:29;;;;;;;17.13;3.38;;;12.70;99.90;;;;;;5050343;28;20197;-79
2021/06/24 02:30:55;;;;;;;11.45;3.00;;;12.80;99.90;;;;;;5048306;28;20743;-79
2021/06/24 02:33:21;;;;;;;8.23;3.28;;;12.80;99.90;;;;;;5050734;28;20194;-79
2021/06/24 02:35:54;;;;;;;50.78;3.10;;;12.80;99.90;;;;;;5025014;28;20202;-80
2021/06/24 02:38:20;;;;;;;28.45;2.80;;;12.80;99.90;;;;;;5032961;28;20208;-82
2021/06/24 02:40:45;;;;;;;7.40;2.80;;;12.90;99.90;;;;;;5032288;28;20193;-80
2021/06/24 02:43:11;;;;;;;3.95;2.40;;;12.90;99.90;;;;;;5032003;28;20247;-81
2021/06/24 02:45:37;;;;;;;3.05;2.38;;;12.80;99.90;;;;;;5047488;28;20247;-80
2021/06/24 02:48:03;;;;;;;2.95;2.20;;;12.80;99.90;;;;;;5050552;28;20198;-78
2021/06/24 02:50:28;;;;;;;2.78;2.10;;;12.80;99.90;;;;;;5050176;28;20225;-78
2021/06/24 02:52:54;;;;;;;4.25;2.50;;;12.90;99.90;;;;;;5032463;28;20197;-81
2021/06/24 02:55:20;;;;;;;3.40;2.38;;;12.90;99.90;;;;;;5031609;28;20201;-80
2021/06/24 02:57:46;;;;;;;5.90;2.38;;;12.90;99.90;;;;;;5050083;28;20290;-80
2021/06/24 03:00:13;;;;;;;10.73;2.55;;;12.90;99.90;;;;;;5032735;28;20932;-79
2021/06/24 03:02:39;;;;;;;6.72;2.58;;;12.90;99.90;;;;;;5027518;28;20197;-80
2021/06/24 03:05:06;;;;;;;11.45;3.00;;;12.90;99.90;;;;;;5047738;28;20197;-79
2021/06/24 03:07:32;;;;;;;14.60;3.33;;;12.90;99.90;;;;;;5048547;28;20197;-79
2021/06/24 03:09:58;;;;;;;5.18;3.05;;;12.90;99.90;;;;;;5048646;28;20205;-79
2021/06/24 03:12:23;;;;;;;11.27;3.72;;;12.90;99.90;;;;;;5031872;28;20198;-78
2021/06/24 03:14:49;;;;;;;10.52;3.40;;;13.00;99.90;;;;;;5030540;28;20224;-80
2021/06/24 03:17:15;;;;;;;47.67;4.30;;;13.00;99.90;;;;;;5032921;28;20192;-80
2021/06/24 03:19:40;;;;;;;60.15;4.60;;;13.00;99.90;;;;;;5031359;28;20208;-79
2021/06/24 03:22:06;;;;;;;19.10;4.43;;;13.00;99.90;;;;;;5032813;28;20248;-80
2021/06/24 03:24:32;;;;;;;10.30;3.78;;;12.90;99.90;;;;;;5049902;28;20268;-78
2021/06/24 03:26:58;;;;;;;123.70;7.20;;;13.00;99.90;;;;;;5047325;28;20229;-79
2021/06/24 03:29:24;;;;;;;92.18;5.47;;;13.00;99.90;;;;;;5034017;28;20229;-78
2021/06/24 03:31:49;;;;;;;140.10;7.75;;;13.10;99.90;;;;;;5031050;28;20212;-80
2021/06/24 03:34:15;;;;;;;78.03;5.80;;;13.10;99.90;;;;;;5029461;28;20683;-78
2021/06/24 03:36:40;;;;;;;87.00;5.70;;;13.10;99.90;;;;;;5031917;28;20741;-79
2021/06/24 03:39:06;;;;;;;7.15;4.40;;;13.10;99.90;;;;;;5049854;28;20649;-80
2021/06/24 03:41:32;;;;;;;49.20;6.13;;;13.20;99.90;;;;;;5031464;28;20308;-81
2021/06/24 03:43:58;;;;;;;13.38;4.80;;;13.20;99.90;;;;;;5029021;28;20224;-80
2021/06/24 03:46:24;;;;;;;69.18;5.78;;;13.30;99.90;;;;;;5046251;28;20194;-79
2021/06/24 03:48:51;;;;;;;79.45;6.47;;;13.30;99.90;;;;;;5047591;28;20672;-79
2021/06/24 03:51:18;;;;;;;66.00;5.55;;;13.40;99.90;;;;;;5030612;28;20209;-79
2021/06/24 03:53:44;;;;;;;50.88;5.72;;;13.50;99.90;;;;;;5047159;28;20209;-80
2021/06/24 03:56:10;;;;;;;38.60;5.07;;;13.50;99.90;;;;;;5028358;28;20823;-80
2021/06/24 03:58:36;;;;;;;11.25;4.68;;;13.60;99.90;;;;;;5028952;28;20201;-79
2021/06/24 04:01:02;;;;;;;7.65;4.22;;;13.60;99.90;;;;;;5046094;28;20208;-80
2021/06/24 04:03:27;;;;;;;9.05;4.53;;;13.70;99.90;;;;;;5029082;28;20202;-79
2021/06/24 04:05:53;;;;;;;71.03;6.30;;;13.80;99.90;;;;;;5045830;28;20197;-81
2021/06/24 04:08:19;;;;;;;7.88;4.68;;;13.90;99.90;;;;;;5028962;28;20350;-79
2021/06/24 04:10:45;;;;;;;41.97;5.90;;;13.90;99.90;;;;;;5029664;28;20924;-80
2021/06/24 04:13:10;;;;;;;26.67;6.30;;;14.00;99.90;;;;;;5023699;28;20981;-80
2021/06/24 04:15:36;;;;;;;40.20;5.80;;;14.00;99.90;;;;;;5026389;28;20289;-77
2021/06/24 04:18:07;;;;;;;28.77;6.15;;;14.10;99.90;;;;;;5029854;28;20389;-79
2021/06/24 04:20:34;;;;;;;68.80;7.35;;;14.10;99.90;;;;;;5028681;28;20783;-78
2021/06/24 04:23:01;;;;;;;32.67;5.78;;;14.20;99.90;;;;;;5028176;28;20198;-81
2021/06/24 04:25:27;;;;;;;10.05;5.13;;;14.20;99.90;;;;;;5046054;28;20590;-80
2021/06/24 04:27:53;;;;;;;15.15;5.70;;;14.20;99.90;;;;;;5027914;28;20201;-80
2021/06/24 04:30:20;;;;;;;13.02;5.35;;;14.30;99.90;;;;;;5028157;28;20207;-78
2021/06/24 04:32:46;;;;;;;10.70;5.47;;;14.30;99.90;;;;;;5027787;28;20806;-79
2021/06/24 04:35:13;;;;;;;9.13;4.60;;;14.30;99.90;;;;;;5046641;28;20201;-79
2021/06/24 04:37:39;;;;;;;13.93;5.63;;;14.40;99.90;;;;;;5027662;28;20213;-78
2021/06/24 04:40:06;;;;;;;8.48;4.90;;;14.50;99.90;;;;;;5046594;28;20216;-79
2021/06/24 04:42:32;;;;;;;10.25;5.47;;;14.60;99.90;;;;;;5026555;28;21307;-80
2021/06/24 04:44:58;;;;;;;9.15;4.95;;;14.70;99.90;;;;;;5030033;28;20193;-79
2021/06/24 04:47:24;;;;;;;10.02;5.22;;;14.70;99.90;;;;;;5046474;28;20201;-79
2021/06/24 04:49:50;;;;;;;9.30;5.43;;;14.80;99.90;;;;;;5030216;28;20200;-79
2021/06/24 04:52:16;;;;;;;9.48;5.50;;;14.80;99.90;;;;;;5030943;28;20201;-77
2021/06/24 04:54:42;;;;;;;44.15;5.60;;;14.90;99.90;;;;;;5047725;28;20217;-78
2021/06/24 04:57:08;;;;;;;34.85;7.05;;;15.00;99.90;;;;;;5029971;28;20205;-79
2021/06/24 04:59:34;;;;;;;12.60;5.88;;;15.10;99.90;;;;;;5047352;28;20284;-79
2021/06/24 05:02:00;;;;;;;11.07;5.72;;;15.20;99.90;;;;;;5032507;28;20288;-79
2021/06/24 05:04:26;;;;;;;22.58;6.30;;;15.30;99.90;;;;;;5029401;28;20193;-80
2021/06/24 05:06:54;;;;;;;30.10;7.40;;;15.40;99.90;;;;;;5031945;28;20587;-81
2021/06/24 05:09:26;;;;;;;14.82;6.82;;;15.50;99.90;;;;;;5049506;28;20232;-82
2021/06/24 05:11:52;;;;;;;12.60;6.38;;;15.50;99.90;;;;;;5048806;28;20198;-80
2021/06/24 05:14:18;;;;;;;17.75;6.95;;;15.50;99.90;;;;;;5033574;28;20204;-81
2021/06/24 05:16:44;;;;;;;16.00;6.78;;;15.50;99.90;;;;;;5041085;28;20250;-81
2021/06/24 05:19:10;;;;;;;26.25;7.78;;;15.50;99.90;;;;;;5045840;28;20550;-84
2021/06/24 05:21:36;;;;;;;9.90;6.15;;;15.60;99.90;;;;;;5029579;28;20830;-82
2021/06/24 05:24:02;;;;;;;11.93;6.40;;;15.60;99.90;;;;;;5028414;28;20205;-81
2021/06/24 05:26:27;;;;;;;10.73;6.63;;;15.70;99.90;;;;;;5035505;28;20267;-80
2021/06/24 05:28:53;;;;;;;20.15;7.00;;;15.90;99.90;;;;;;5036998;28;20192;-80
2021/06/24 05:31:18;;;;;;;11.25;6.47;;;15.90;99.90;;;;;;5051261;28;20250;-79
2021/06/24 05:33:44;;;;;;;19.35;7.32;;;16.00;99.90;;;;;;5038247;28;20197;-80
2021/06/24 05:36:10;;;;;;;15.63;6.57;;;16.10;99.90;;;;;;5036497;28;20201;-79
2021/06/24 05:38:37;;;;;;;12.52;7.40;;;16.10;99.90;;;;;;5031292;28;20204;-79
2021/06/24 05:41:02;;;;;;;19.33;8.05;;;16.30;99.90;;;;;;5050659;28;20264;-80
2021/06/24 05:43:28;;;;;;;26.15;7.60;;;16.30;99.90;;;;;;5051489;28;20216;-79
2021/06/24 05:45:54;;;;;;;14.85;7.40;;;16.30;99.90;;;;;;5033762;28;20227;-78
2021/06/24 05:48:20;;;;;;;14.05;7.68;;;16.30;99.90;;;;;;5051315;28;20201;-80
2021/06/24 05:50:45;;;;;;;12.43;6.78;;;16.40;99.90;;;;;;5029818;28;20205;-79
2021/06/24 05:53:11;;;;;;;14.40;7.70;;;16.60;99.90;;;;;;5046629;28;20231;-80
2021/06/24 05:58:17;;;;;;;11.50;7.18;;;17.10;99.90;;;;;;5045224;28;20201;-79
2021/06/24 06:00:43;;;;;;;10.32;6.35;;;17.30;99.90;;;;;;5051696;28;20194;-79
2021/06/24 06:03:10;;;;;;;12.23;7.03;;;17.60;99.90;;;;;;5047998;28;20276;-79
2021/06/24 06:05:36;;;;;;;9.85;6.10;;;17.90;99.90;;;;;;5033897;28;20198;-80
2021/06/24 06:08:04;;;;;;;8.95;6.07;;;18.10;99.90;;;;;;5031400;28;20238;-79
2021/06/24 06:10:31;;;;;;;10.55;6.00;;;18.20;99.90;;;;;;5033311;28;20599;-80
2021/06/24 06:12:56;;;;;;;11.20;6.40;;;18.30;99.90;;;;;;5026756;28;20196;-79
2021/06/24 06:15:22;;;;;;;9.13;5.68;;;18.50;99.90;;;;;;5027645;28;20194;-80
2021/06/24 06:17:48;;;;;;;8.55;5.40;;;18.50;99.90;;;;;;5031200;28;20198;-77
2021/06/24 06:20:14;;;;;;;10.10;4.70;;;18.40;99.90;;;;;;5035145;28;20197;-78
2021/06/24 06:22:40;;;;;;;6.70;4.57;;;18.20;99.90;;;;;;5048204;28;20209;-83
2021/06/24 06:25:06;;;;;;;10.60;4.43;;;18.10;99.90;;;;;;5040521;28;20194;-82
2021/06/24 06:27:32;;;;;;;6.55;4.32;;;18.00;99.90;;;;;;5032415;28;20194;-79
2021/06/24 06:29:57;;;;;;;8.52;4.75;;;17.90;99.90;;;;;;5030477;28;20259;-81
2021/06/24 06:32:24;;;;;;;13.40;4.78;;;17.80;99.90;;;;;;5051190;28;20199;-81
2021/06/24 06:34:50;;;;;;;10.93;4.68;;;17.80;99.90;;;;;;5040424;28;20197;-81
2021/06/24 06:37:16;;;;;;;6.35;4.68;;;17.80;99.90;;;;;;5025933;28;20249;-80
2021/06/24 06:39:41;;;;;;;9.25;4.38;;;18.00;99.90;;;;;;5027971;28;20688;-81
2021/06/24 06:42:07;;;;;;;10.40;4.45;;;18.40;99.90;;;;;;5026654;28;20227;-81
2021/06/24 06:44:33;;;;;;;5.68;3.75;;;18.70;99.90;;;;;;5033230;28;20202;-80
2021/06/24 06:46:59;;;;;;;6.55;4.13;;;19.10;99.90;;;;;;5034262;28;20908;-80
2021/06/24 06:49:24;;;;;;;6.10;4.20;;;19.60;99.90;;;;;;5033462;28;20206;-84
2021/06/24 06:51:50;;;;;;;5.63;3.90;;;20.10;99.90;;;;;;5035702;28;20233;-83
2021/06/24 06:54:16;;;;;;;7.50;4.22;;;20.40;99.90;;;;;;5030506;28;20805;-84
2021/06/24 06:56:46;;;;;;;6.68;4.20;;;20.20;99.90;;;;;;5041316;28;20294;-82
2021/06/24 06:59:13;;;;;;;11.18;4.60;;;20.10;99.90;;;;;;5027702;28;20213;-81
2021/06/24 07:01:38;;;;;;;6.43;4.32;;;19.90;99.90;;;;;;5025133;28;20334;-82
2021/06/24 07:04:04;;;;;;;6.80;4.43;;;20.00;99.90;;;;;;5029190;28;20210;-82
2021/06/24 07:06:30;;;;;;;5.07;3.85;;;20.10;99.90;;;;;;5029189;28;20198;-81
2021/06/24 07:08:57;;;;;;;9.27;3.85;;;20.10;99.90;;;;;;5024633;28;20217;-80
2021/06/24 07:11:23;;;;;;;7.03;3.50;;;20.30;99.90;;;;;;5024586;28;20198;-78
2021/06/24 07:13:49;;;;;;;6.18;3.40;;;20.60;99.90;;;;;;5029607;28;20202;-78
2021/06/24 07:16:15;;;;;;;8.57;4.03;;;21.20;99.90;;;;;;5033256;28;20189;-76
2021/06/24 07:18:41;;;;;;;5.57;3.85;;;21.70;99.90;;;;;;5022455;28;20214;-77
2021/06/24 07:21:06;;;;;;;5.53;3.78;;;22.00;99.90;;;;;;5027042;28;20209;-75
2021/06/24 07:23:32;;;;;;;6.68;3.80;;;22.40;99.90;;;;;;5022496;28;20190;-75
2021/06/24 07:25:58;;;;;;;7.45;3.65;;;22.40;99.90;;;;;;5023822;28;20664;-75
2021/06/24 07:28:24;;;;;;;7.00;4.50;;;22.50;99.90;;;;;;5023382;28;20787;-74
2021/06/24 07:30:50;;;;;;;8.95;3.50;;;22.30;99.90;;;;;;5023619;28;20194;-75
2021/06/24 07:33:19;;;;;;;4.72;3.42;;;22.20;99.90;;;;;;5025266;28;20826;-76
2021/06/24 07:35:45;;;;;;;4.97;3.60;;;22.60;99.90;;;;;;5026542;28;20204;-76
2021/06/24 07:38:11;;;;;;;6.00;3.45;;;22.50;99.90;;;;;;5025143;28;20285;-77
2021/06/24 07:40:39;;;;;;;6.38;3.83;;;22.90;99.90;;;;;;5021357;28;20221;-78
2021/06/24 07:43:05;;;;;;;6.20;3.90;;;23.00;99.90;;;;;;5026452;28;20234;-77
2021/06/24 07:45:31;;;;;;;6.90;4.03;;;22.50;99.90;;;;;;5022674;28;20228;-77
2021/06/24 07:47:57;;;;;;;4.57;3.50;;;22.40;99.90;;;;;;5022687;28;20202;-77
2021/06/24 07:50:23;;;;;;;4.88;3.33;;;22.30;99.90;;;;;;5024256;28;20193;-77
2021/06/24 07:52:49;;;;;;;5.47;3.10;;;23.00;99.90;;;;;;5024109;28;20194;-76
2021/06/24 07:55:15;;;;;;;5.45;3.20;;;23.50;99.90;;;;;;5035742;28;20541;-75
2021/06/24 07:57:42;;;;;;;4.50;2.83;;;23.50;99.90;;;;;;5025827;28;20190;-75
2021/06/24 08:00:09;;;;;;;6.07;3.08;;;23.30;99.90;;;;;;5027713;28;20198;-74
2021/06/24 08:02:35;;;;;;;4.63;2.78;;;23.40;99.90;;;;;;5025096;28;20198;-74
2021/06/24 08:05:01;;;;;;;4.75;2.60;;;23.30;99.90;;;;;;5026646;28;20213;-76
2021/06/24 08:07:26;;;;;;;5.97;2.80;;;23.30;99.90;;;;;;5026503;28;20193;-75
2021/06/24 08:09:52;;;;;;;4.05;2.90;;;23.10;99.90;;;;;;5024296;28;20201;-76
2021/06/24 08:12:18;;;;;;;3.08;2.78;;;23.20;99.90;;;;;;5026428;28;20210;-76
2021/06/24 08:14:45;;;;;;;3.90;2.88;;;23.70;99.90;;;;;;5025998;28;20729;-76
2021/06/24 08:17:11;;;;;;;3.00;2.70;;;23.30;99.90;;;;;;5026039;28;20205;-76
2021/06/24 08:19:36;;;;;;;3.10;2.70;;;22.70;99.90;;;;;;5025317;28;20201;-77
2021/06/24 08:22:03;;;;;;;7.75;3.30;;;22.90;99.90;;;;;;5025525;28;20620;-80
2021/06/24 08:24:29;;;;;;;5.00;2.92;;;23.40;99.90;;;;;;5025556;28;20186;-77
2021/06/24 08:26:55;;;;;;;6.07;2.75;;;23.10;99.90;;;;;;5024296;28;21709;-75
2021/06/24 08:29:21;;;;;;;3.60;2.58;;;23.00;99.90;;;;;;5026040;28;20656;-78
2021/06/24 08:31:46;;;;;;;2.75;2.22;;;23.20;99.90;;;;;;5025833;28;20209;-77
2021/06/24 08:34:12;;;;;;;2.92;2.30;;;23.70;99.90;;;;;;5026519;28;20233;-77
2021/06/24 08:36:38;;;;;;;4.32;2.50;;;23.80;99.90;;;;;;5024357;28;20861;-77
2021/06/24 08:39:05;;;;;;;3.40;2.10;;;24.20;99.90;;;;;;5025276;28;20210;-77
2021/06/24 08:41:31;;;;;;;3.05;2.17;;;24.60;99.90;;;;;;5032876;28;20226;-76
2021/06/24 08:43:57;;;;;;;3.17;2.20;;;24.70;99.90;;;;;;5028036;28;20217;-77
2021/06/24 08:46:26;;;;;;;4.85;2.03;;;24.60;99.90;;;;;;5036674;28;20249;-77
2021/06/24 08:48:53;;;;;;;3.45;2.10;;;24.60;99.90;;;;;;5026781;28;20281;-77
2021/06/24 08:51:19;;;;;;;3.67;1.98;;;25.00;99.90;;;;;;5025561;28;20228;-77
2021/06/24 08:53:47;;;;;;;5.32;2.30;;;25.10;99.90;;;;;;5025639;28;20664;-76
2021/06/24 08:56:15;;;;;;;3.83;1.85;;;24.90;99.90;;;;;;5021306;28;20194;-77
2021/06/24 08:58:40;;;;;;;4.50;1.63;;;24.00;99.90;;;;;;5024539;28;20685;-77
2021/06/24 09:01:06;;;;;;;11.30;2.33;;;24.00;99.90;;;;;;5024280;28;20194;-77
2021/06/24 09:03:32;;;;;;;5.13;2.20;;;24.50;99.90;;;;;;5024601;28;20194;-78
2021/06/24 09:06:05;;;;;;;3.88;1.95;;;24.30;99.90;;;;;;5025464;28;20225;-78
2021/06/24 09:08:38;;;;;;;2.38;1.80;;;24.30;99.90;;;;;;5025487;28;20707;-77
2021/06/24 09:11:12;;;;;;;3.78;2.15;;;24.40;99.90;;;;;;5025626;28;20190;-77
2021/06/24 09:13:39;;;;;;;3.28;2.00;;;24.70;99.90;;;;;;5023905;28;20337;-77
2021/06/24 09:16:21;;;;;;;3.53;2.15;;;24.20;99.90;;;;;;5020957;28;20206;-77
2021/06/24 09:18:47;;;;;;;3.25;1.75;;;24.30;99.90;;;;;;5039509;28;20205;-77
2021/06/24 09:21:24;;;;;;;3.42;2.00;;;24.70;99.90;;;;;;5031912;28;20207;-76
2021/06/24 09:23:53;;;;;;;4.07;2.42;;;24.20;99.90;;;;;;5022983;28;20193;-75
2021/06/24 09:26:20;;;;;;;5.68;2.08;;;23.60;99.90;;;;;;5025169;28;20224;-77
2021/06/24 09:28:52;;;;;;;3.50;2.00;;;23.70;99.90;;;;;;5044301;28;20253;-79
2021/06/24 09:31:23;;;;;;;3.83;1.85;;;24.00;99.90;;;;;;5028037;28;20201;-77
2021/06/24 09:33:50;;;;;;;3.60;2.00;;;23.90;99.90;;;;;;5027635;28;20198;-78
2021/06/24 09:36:34;;;;;;;1.73;1.60;;;23.80;99.90;;;;;;5029838;28;20202;-78
2021/06/24 09:39:00;;;;;;;2.55;1.90;;;23.60;99.90;;;;;;5024797;28;20241;-79
2021/06/24 09:41:26;;;;;;;7.20;2.20;;;23.50;99.90;;;;;;5029670;28;20265;-79
2021/06/24 09:43:51;;;;;;;1.60;1.48;;;24.20;99.90;;;;;;5021546;28;20206;-79
2021/06/24 09:46:19;;;;;;;2.10;1.70;;;24.00;99.90;;;;;;5025200;28;20202;-79
2021/06/24 09:48:47;;;;;;;1.70;1.40;;;23.60;99.90;;;;;;5025513;28;20193;-78
2021/06/24 09:51:16;;;;;;;3.78;1.67;;;23.40;99.90;;;;;;5019299;28;20194;-79
2021/06/24 09:53:56;;;;;;;6.28;1.80;;;23.00;99.90;;;;;;5029396;28;20201;-78
2021/06/24 09:56:33;;;;;;;5.28;1.60;;;22.60;99.90;;;;;;5028342;28;20205;-78
2021/06/24 09:59:05;;;;;;;2.05;1.50;;;22.80;99.90;;;;;;5024737;28;20661;-79
2021/06/24 10:01:32;;;;;;;1.88;1.30;;;23.60;99.90;;;;;;5028803;28;20544;-79
2021/06/24 10:04:00;;;;;;;2.33;1.40;;;24.40;99.90;;;;;;5023266;28;20317;-79
2021/06/24 10:06:26;;;;;;;4.47;1.30;;;25.20;99.90;;;;;;5027689;28;20209;-79
2021/06/24 10:08:53;;;;;;;2.22;1.30;;;25.50;99.90;;;;;;5027485;28;20198;-79
2021/06/24 10:11:21;;;;;;;5.25;1.35;;;25.70;99.90;;;;;;5027326;28;20209;-79
2021/06/24 10:13:47;;;;;;;1.85;1.33;;;26.00;99.90;;;;;;5030228;28;20202;-78
2021/06/24 10:16:15;;;;;;;4.30;1.27;;;26.50;99.90;;;;;;5034615;28;20206;-80
2021/06/24 10:18:46;;;;;;;1.63;1.05;;;26.70;99.90;;;;;;5030305;28;20293;-78
2021/06/24 10:21:14;;;;;;;2.92;1.30;;;26.60;99.90;;;;;;5024234;28;20664;-76
2021/06/24 10:24:00;;;;;;;1.95;1.20;;;26.50;99.90;;;;;;5029556;28;20229;-76
2021/06/24 10:26:27;;;;;;;1.48;1.20;;;26.90;99.90;;;;;;5026590;28;20202;-77
2021/06/24 10:29:19;;;;;;;2.10;1.10;;;26.70;99.10;;;;;;5034127;28;20664;-78
2021/06/24 10:31:47;;;;;;;5.55;1.10;;;26.50;98.80;;;;;;5023787;28;20198;-77
2021/06/24 10:34:14;;;;;;;2.58;1.10;;;26.70;99.90;;;;;;5031153;28;20215;-77
2021/06/24 10:37:14;;;;;;;1.85;1.05;;;26.80;99.50;;;;;;5024880;28;20198;-78
2021/06/24 10:39:42;;;;;;;4.45;1.27;;;27.00;98.10;;;;;;5030217;28;20201;-77
2021/06/24 10:42:13;;;;;;;1.23;1.13;;;26.70;96.60;;;;;;5029742;28;20221;-76
2021/06/24 10:44:42;;;;;;;1.20;1.10;;;26.00;97.40;;;;;;5026714;28;20656;-78
2021/06/24 10:47:08;;;;;;;2.00;1.20;;;26.40;97.70;;;;;;5035631;28;20208;-78
2021/06/24 10:49:34;;;;;;;1.80;1.20;;;26.40;98.00;;;;;;5028006;28;20241;-78
2021/06/24 10:52:25;;;;;;;2.00;1.20;;;26.10;98.80;;;;;;5030865;28;20771;-77
2021/06/24 10:54:55;;;;;;;1.95;1.17;;;26.70;96.50;;;;;;5023277;28;20288;-78
2021/06/24 10:57:35;;;;;;;2.80;1.30;;;26.40;94.90;;;;;;5025864;28;20202;-78
2021/06/24 11:00:32;;;;;;;3.40;1.15;;;26.50;97.90;;;;;;5029103;28;20217;-79
2021/06/24 11:03:00;;;;;;;3.58;1.23;;;27.50;96.00;;;;;;5027253;28;20665;-79
2021/06/24 11:05:34;;;;;;;1.20;1.10;;;27.90;95.80;;;;;;5022275;28;20201;-78
2021/06/24 11:08:09;;;;;;;3.25;1.40;;;26.80;92.80;;;;;;5025952;28;20279;-79
2021/06/24 11:11:08;;;;;;;3.88;1.02;;;26.20;94.80;;;;;;5027246;28;20207;-79
2021/06/24 11:13:40;;;;;;;2.45;1.23;;;26.40;95.70;;;;;;5021144;28;20612;-79
2021/06/24 11:16:21;;;;;;;2.30;1.10;;;26.70;95.60;;;;;;5033031;28;20197;-78
2021/06/24 11:18:52;;;;;;;1.58;1.20;;;27.20;94.00;;;;;;5027196;28;20248;-79
2021/06/24 11:21:41;;;;;;;1.48;1.20;;;27.60;93.40;;;;;;5030404;28;20189;-79
2021/06/24 11:24:07;;;;;;;3.80;1.10;;;27.50;94.90;;;;;;5037258;28;20293;-79
2021/06/24 11:26:41;;;;;;;1.52;1.17;;;27.60;92.70;;;;;;5029085;28;21023;-77
2021/06/24 11:29:18;;;;;;;1.35;1.10;;;27.40;93.50;;;;;;5032903;28;20529;-79
2021/06/24 11:31:58;;;;;;;1.35;1.10;;;26.70;92.40;;;;;;5033375;28;20491;-78
2021/06/24 11:34:41;;;;;;;2.58;1.15;;;27.00;94.30;;;;;;5027907;28;20205;-79
2021/06/24 11:37:20;;;;;;;1.15;0.95;;;27.50;94.50;;;;;;5024627;28;20202;-76
2021/06/24 11:39:53;;;;;;;3.67;1.00;;;27.80;91.00;;;;;;5025428;28;20343;-79
2021/06/24 11:42:36;;;;;;;1.60;1.10;;;27.10;91.20;;;;;;5044685;28;20229;-80
2021/06/24 11:45:04;;;;;;;2.70;0.98;;;26.90;90.90;;;;;;5055482;28;20732;-78
2021/06/24 11:47:34;;;;;;;3.35;1.30;;;27.10;92.50;;;;;;5050546;28;20200;-76
2021/06/24 12:04:02;;;;;;;2.17;0.90;;;26.80;91.60;;;;;;5049409;28;20200;-80
2021/06/24 12:06:56;;;;;;;1.33;1.08;;;27.20;91.40;;;;;;5030036;28;20229;-82
2021/06/24 12:09:39;;;;;;;2.13;1.23;;;27.20;88.50;;;;;;5045453;28;20622;-80
2021/06/24 12:12:06;;;;;;;2.03;1.17;;;27.30;90.30;;;;;;5030014;28;20759;-80
2021/06/24 12:14:33;;;;;;;0.90;0.80;;;27.20;88.30;;;;;;5030324;28;20220;-79
2021/06/24 12:17:23;;;;;;;3.47;1.50;;;26.40;90.00;;;;;;5049901;28;20196;-81
2021/06/24 12:20:10;;;;;;;1.10;1.00;;;27.00;86.50;;;;;;5026528;28;20567;-78
2021/06/24 12:22:54;;;;;;;3.88;1.27;;;27.00;85.60;;;;;;5029862;28;20646;-79
2021/06/24 12:25:25;;;;;;;1.73;0.90;;;27.30;86.40;;;;;;5045257;28;20758;-80
2021/06/24 12:27:54;;;;;;;2.15;1.13;;;27.60;84.30;;;;;;5031790;28;20251;-80
2021/06/24 12:30:25;;;;;;;1.90;1.10;;;27.10;84.60;;;;;;5045260;28;20219;-81
2021/06/24 12:33:00;;;;;;;2.03;1.05;;;27.50;88.10;;;;;;5032496;28;20279;-79
2021/06/24 12:35:32;;;;;;;1.17;1.00;;;27.80;90.00;;;;;;5034666;28;20263;-80
2021/06/24 12:38:03;;;;;;;2.17;1.02;;;27.90;90.30;;;;;;5048546;28;20184;-79
2021/06/24 12:40:38;;;;;;;1.20;1.00;;;27.70;82.30;;;;;;5035978;28;20292;-79
2021/06/24 12:43:05;;;;;;;1.23;1.02;;;27.60;82.70;;;;;;5029056;28;20212;-79
2021/06/24 12:45:36;;;;;;;1.80;0.85;;;27.80;88.70;;;;;;5050677;28;20212;-78
2021/06/24 12:48:03;;;;;;;1.60;1.00;;;28.00;83.70;;;;;;5027858;28;20198;-79
2021/06/24 12:50:35;;;;;;;2.75;1.00;;;27.80;84.00;;;;;;5053417;28;20249;-79
2021/06/24 12:53:03;;;;;;;1.60;1.00;;;27.50;82.10;;;;;;5058159;28;20200;-79
2021/06/24 12:55:36;;;;;;;2.50;1.00;;;28.00;85.60;;;;;;5053876;28;20188;-79
2021/06/24 12:58:08;;;;;;;0.80;0.80;;;28.60;85.80;;;;;;5049123;28;20185;-80
2021/06/24 13:00:34;;;;;;;3.13;0.82;;;28.70;82.60;;;;;;5037259;28;20196;-79
2021/06/24 13:03:01;;;;;;;0.98;0.88;;;29.00;77.50;;;;;;5032794;28;20197;-79
2021/06/24 13:05:27;;;;;;;3.20;1.27;;;28.80;80.90;;;;;;5037673;28;20682;-80